ROU2055 CYYT-CYYZ
Flight info
| Callsign | ROU2055 |
|---|---|
| Flight time | N/A |
| Altitude | 32000 |
| Route | TEXED DCT TAGRA DCT MIILS/N0467F340 DCT TUKIR RAGID6 |
| Aircraft | A321/M-SDE3FGHIRWY/LB1 |
Departure
| Time | N/A |
|---|---|
| Airport | St. John's International Airport (CYYT) |
Arrival
| Time | 2026-05-08 00:06 |
|---|---|
| Airport | Toronto Pearson International Airport (CYYZ) |
| Time | Latitude | Longitude | Altitude | Speed | Heading |
|---|---|---|---|---|---|
| 2026-05-07 23:20 | 45.47728 | -75.19420 | 31764 ft | 402 kts | 253° |
| 2026-05-07 23:21 | 45.46120 | -75.27064 | 31772 ft | 402 kts | 253° |
| 2026-05-07 23:21 | 45.44502 | -75.34702 | 31771 ft | 403 kts | 253° |
| 2026-05-07 23:22 | 45.42886 | -75.42289 | 31765 ft | 403 kts | 253° |
| 2026-05-07 23:22 | 45.41257 | -75.49968 | 31769 ft | 402 kts | 253° |
| 2026-05-07 23:23 | 45.39641 | -75.57540 | 31763 ft | 403 kts | 253° |
| 2026-05-07 23:23 | 45.38001 | -75.65165 | 31759 ft | 403 kts | 253° |
| 2026-05-07 23:24 | 45.36354 | -75.72819 | 31754 ft | 404 kts | 253° |
| 2026-05-07 23:24 | 45.34700 | -75.80466 | 31755 ft | 404 kts | 253° |
| 2026-05-07 23:25 | 45.33041 | -75.88113 | 31754 ft | 405 kts | 253° |
| 2026-05-07 23:25 | 45.31388 | -75.95711 | 31774 ft | 405 kts | 253° |
| 2026-05-07 23:26 | 45.29717 | -76.03360 | 31769 ft | 405 kts | 253° |
| 2026-05-07 23:26 | 45.28034 | -76.11054 | 31772 ft | 405 kts | 253° |
| 2026-05-07 23:27 | 45.25372 | -76.22387 | 31783 ft | 406 kts | 245° |
| 2026-05-07 23:27 | 45.22151 | -76.28954 | 31782 ft | 409 kts | 232° |
| 2026-05-07 23:28 | 45.18427 | -76.35072 | 31787 ft | 409 kts | 232° |
| 2026-05-07 23:28 | 45.14714 | -76.41187 | 31772 ft | 409 kts | 232° |
| 2026-05-07 23:29 | 45.11006 | -76.47280 | 31794 ft | 408 kts | 232° |
| 2026-05-07 23:29 | 45.07290 | -76.53370 | 31794 ft | 409 kts | 232° |
| 2026-05-07 23:30 | 45.03575 | -76.59434 | 31800 ft | 410 kts | 232° |
| 2026-05-07 23:30 | 44.99812 | -76.65572 | 31804 ft | 410 kts | 232° |
| 2026-05-07 23:31 | 44.96098 | -76.71627 | 31794 ft | 410 kts | 232° |
| 2026-05-07 23:31 | 44.92360 | -76.77706 | 31806 ft | 410 kts | 232° |
| 2026-05-07 23:32 | 44.88607 | -76.83774 | 31815 ft | 410 kts | 232° |
| 2026-05-07 23:32 | 44.84861 | -76.89828 | 31819 ft | 410 kts | 232° |
| 2026-05-07 23:33 | 44.81175 | -76.95947 | 31804 ft | 407 kts | 237° |
| 2026-05-07 23:33 | 44.78313 | -77.02778 | 31824 ft | 405 kts | 242° |
| 2026-05-07 23:34 | 44.75530 | -77.09679 | 31816 ft | 405 kts | 242° |
| 2026-05-07 23:34 | 44.72736 | -77.16589 | 31817 ft | 406 kts | 242° |
| 2026-05-07 23:35 | 44.69956 | -77.23458 | 31818 ft | 406 kts | 242° |
| 2026-05-07 23:35 | 44.67153 | -77.30353 | 31811 ft | 406 kts | 242° |
| 2026-05-07 23:36 | 44.64344 | -77.37225 | 31823 ft | 406 kts | 242° |
| 2026-05-07 23:36 | 44.61531 | -77.44086 | 31826 ft | 405 kts | 242° |
| 2026-05-07 23:37 | 44.58714 | -77.50942 | 31829 ft | 406 kts | 242° |
| 2026-05-07 23:37 | 44.55889 | -77.57818 | 31823 ft | 407 kts | 242° |
| 2026-05-07 23:38 | 44.53063 | -77.64684 | 31827 ft | 407 kts | 242° |
| 2026-05-07 23:38 | 44.50218 | -77.71556 | 31822 ft | 407 kts | 242° |
| 2026-05-07 23:39 | 44.47372 | -77.78412 | 31840 ft | 407 kts | 242° |
| 2026-05-07 23:39 | 44.44528 | -77.85263 | 31845 ft | 407 kts | 242° |
| 2026-05-07 23:40 | 44.41699 | -77.92059 | 31851 ft | 406 kts | 242° |
| 2026-05-07 23:40 | 44.38846 | -77.98891 | 31638 ft | 409 kts | 242° |
| 2026-05-07 23:41 | 44.37394 | -78.02363 | 30715 ft | 415 kts | 242° |
| 2026-05-07 23:41 | 44.35924 | -78.05871 | 29853 ft | 418 kts | 242° |
| 2026-05-07 23:41 | 44.34449 | -78.09393 | 28808 ft | 422 kts | 242° |
| 2026-05-07 23:41 | 44.32964 | -78.12936 | 27864 ft | 424 kts | 241° |
| 2026-05-07 23:42 | 44.31467 | -78.16496 | 26853 ft | 427 kts | 241° |
| 2026-05-07 23:42 | 44.29953 | -78.20086 | 26033 ft | 428 kts | 241° |
| 2026-05-07 23:42 | 44.28449 | -78.23634 | 25447 ft | 422 kts | 241° |
| 2026-05-07 23:42 | 44.26983 | -78.27094 | 24815 ft | 418 kts | 241° |
| 2026-05-07 23:43 | 44.25506 | -78.30583 | 24189 ft | 415 kts | 241° |
| 2026-05-07 23:43 | 44.24050 | -78.34029 | 23573 ft | 412 kts | 241° |
| 2026-05-07 23:43 | 44.22599 | -78.37459 | 22912 ft | 408 kts | 241° |
| 2026-05-07 23:43 | 44.21167 | -78.40838 | 22352 ft | 401 kts | 241° |
| 2026-05-07 23:44 | 44.19754 | -78.44159 | 21797 ft | 396 kts | 241° |
| 2026-05-07 23:44 | 44.18362 | -78.47427 | 21262 ft | 390 kts | 241° |
| 2026-05-07 23:44 | 44.16987 | -78.50655 | 20748 ft | 384 kts | 241° |
| 2026-05-07 23:44 | 44.15638 | -78.53818 | 20250 ft | 378 kts | 241° |
| 2026-05-07 23:45 | 44.14306 | -78.56940 | 19763 ft | 372 kts | 241° |
| 2026-05-07 23:45 | 44.12991 | -78.60023 | 19310 ft | 367 kts | 241° |
| 2026-05-07 23:45 | 44.11697 | -78.63051 | 18845 ft | 361 kts | 241° |
| 2026-05-07 23:45 | 44.10417 | -78.66035 | 18430 ft | 356 kts | 241° |
| 2026-05-07 23:46 | 44.09154 | -78.68968 | 17995 ft | 353 kts | 241° |
| 2026-05-07 23:46 | 44.07907 | -78.71865 | 17654 ft | 352 kts | 241° |
| 2026-05-07 23:46 | 44.06654 | -78.74773 | 17257 ft | 350 kts | 241° |
| 2026-05-07 23:46 | 44.05412 | -78.77665 | 16854 ft | 347 kts | 241° |
| 2026-05-07 23:47 | 44.04179 | -78.80535 | 16467 ft | 344 kts | 241° |
| 2026-05-07 23:47 | 44.02933 | -78.83366 | 16084 ft | 342 kts | 240° |
| 2026-05-07 23:47 | 44.01680 | -78.86129 | 15870 ft | 331 kts | 239° |
| 2026-05-07 23:47 | 44.00457 | -78.88778 | 15736 ft | 319 kts | 239° |
| 2026-05-07 23:48 | 43.99275 | -78.91322 | 15602 ft | 308 kts | 239° |
| 2026-05-07 23:48 | 43.98142 | -78.93769 | 15469 ft | 297 kts | 240° |
| 2026-05-07 23:48 | 43.97045 | -78.96148 | 15271 ft | 288 kts | 240° |
| 2026-05-07 23:48 | 43.95972 | -78.98478 | 15000 ft | 284 kts | 240° |
| 2026-05-07 23:49 | 43.94921 | -79.00766 | 14968 ft | 280 kts | 240° |
| 2026-05-07 23:49 | 43.93869 | -79.03058 | 14999 ft | 282 kts | 240° |
| 2026-05-07 23:49 | 43.92828 | -79.05326 | 14896 ft | 284 kts | 240° |
| 2026-05-07 23:49 | 43.91765 | -79.07645 | 14445 ft | 284 kts | 240° |
| 2026-05-07 23:50 | 43.90692 | -79.09979 | 14085 ft | 282 kts | 240° |
| 2026-05-07 23:50 | 43.89651 | -79.12230 | 13759 ft | 280 kts | 239° |
| 2026-05-07 23:50 | 43.88610 | -79.14483 | 13415 ft | 276 kts | 240° |
| 2026-05-07 23:50 | 43.87575 | -79.16725 | 13025 ft | 274 kts | 240° |
| 2026-05-07 23:51 | 43.86555 | -79.18936 | 12681 ft | 271 kts | 240° |
| 2026-05-07 23:51 | 43.85543 | -79.21126 | 12345 ft | 268 kts | 240° |
| 2026-05-07 23:51 | 43.84543 | -79.23287 | 12023 ft | 266 kts | 240° |
| 2026-05-07 23:51 | 43.83547 | -79.25434 | 11694 ft | 264 kts | 240° |
| 2026-05-07 23:52 | 43.82557 | -79.27568 | 11360 ft | 262 kts | 240° |
| 2026-05-07 23:52 | 43.81575 | -79.29684 | 11041 ft | 260 kts | 240° |
| 2026-05-07 23:52 | 43.80598 | -79.31792 | 10709 ft | 259 kts | 240° |
| 2026-05-07 23:52 | 43.79627 | -79.33888 | 10380 ft | 258 kts | 240° |
| 2026-05-07 23:53 | 43.78553 | -79.35875 | 10055 ft | 259 kts | 230° |
| 2026-05-07 23:53 | 43.77199 | -79.37478 | 9741 ft | 262 kts | 220° |
| 2026-05-07 23:53 | 43.75691 | -79.38933 | 9391 ft | 261 kts | 220° |
| 2026-05-07 23:53 | 43.74706 | -79.39888 | 9170 ft | 260 kts | 220° |
| 2026-05-07 23:54 | 43.72747 | -79.41786 | 8734 ft | 261 kts | 219° |
| 2026-05-07 23:54 | 43.71252 | -79.43231 | 8416 ft | 262 kts | 218° |
| 2026-05-07 23:54 | 43.69800 | -79.44633 | 8345 ft | 249 kts | 219° |
| 2026-05-07 23:54 | 43.68407 | -79.45981 | 8256 ft | 242 kts | 219° |
| 2026-05-07 23:55 | 43.67036 | -79.47314 | 8141 ft | 240 kts | 219° |
| 2026-05-07 23:55 | 43.65666 | -79.48648 | 8037 ft | 240 kts | 219° |
| 2026-05-07 23:55 | 43.64297 | -79.49974 | 7940 ft | 241 kts | 218° |
| 2026-05-07 23:55 | 43.62929 | -79.51282 | 7651 ft | 239 kts | 218° |
| 2026-05-07 23:56 | 43.61561 | -79.52583 | 7306 ft | 239 kts | 218° |
| 2026-05-07 23:56 | 43.60193 | -79.53882 | 6961 ft | 239 kts | 218° |
| 2026-05-07 23:56 | 43.58967 | -79.55390 | 6621 ft | 236 kts | 229° |
| 2026-05-07 23:56 | 43.57839 | -79.57040 | 6286 ft | 236 kts | 229° |
| 2026-05-07 23:57 | 43.56709 | -79.58686 | 5925 ft | 236 kts | 229° |
| 2026-05-07 23:57 | 43.55577 | -79.60330 | 5599 ft | 236 kts | 229° |
| 2026-05-07 23:57 | 43.54449 | -79.61966 | 5254 ft | 235 kts | 229° |
| 2026-05-07 23:57 | 43.53323 | -79.63596 | 4932 ft | 234 kts | 229° |
| 2026-05-07 23:58 | 43.52217 | -79.65199 | 4615 ft | 233 kts | 229° |
| 2026-05-07 23:58 | 43.51098 | -79.66820 | 4295 ft | 233 kts | 229° |
| 2026-05-07 23:58 | 43.49987 | -79.68429 | 4064 ft | 227 kts | 229° |
| 2026-05-07 23:58 | 43.48933 | -79.69954 | 3991 ft | 213 kts | 229° |
| 2026-05-07 23:59 | 43.47917 | -79.71425 | 4021 ft | 211 kts | 229° |
| 2026-05-07 23:59 | 43.46906 | -79.72891 | 4023 ft | 211 kts | 229° |
| 2026-05-07 23:59 | 43.45891 | -79.74358 | 4027 ft | 211 kts | 229° |
| 2026-05-07 23:59 | 43.45012 | -79.75932 | 3891 ft | 205 kts | 250° |
| 2026-05-08 00:00 | 43.44882 | -79.77812 | 3534 ft | 201 kts | 285° |
| 2026-05-08 00:00 | 43.45599 | -79.79430 | 3179 ft | 202 kts | 314° |
| 2026-05-08 00:00 | 43.46667 | -79.80683 | 3031 ft | 202 kts | 320° |
| 2026-05-08 00:00 | 43.47840 | -79.81779 | 3020 ft | 207 kts | 336° |
| 2026-05-08 00:01 | 43.49276 | -79.81914 | 3026 ft | 214 kts | 10° |
| 2026-05-08 00:01 | 43.50697 | -79.81240 | 3032 ft | 217 kts | 19° |
| 2026-05-08 00:01 | 43.52046 | -79.80455 | 3031 ft | 201 kts | 20° |
| 2026-05-08 00:01 | 43.53264 | -79.79721 | 3017 ft | 182 kts | 19° |
| 2026-05-08 00:02 | 43.54390 | -79.79023 | 3016 ft | 174 kts | 22° |
| 2026-05-08 00:02 | 43.55314 | -79.77952 | 3028 ft | 175 kts | 44° |
| 2026-05-08 00:02 | 43.56151 | -79.76746 | 3026 ft | 173 kts | 42° |
| 2026-05-08 00:02 | 43.56988 | -79.75546 | 3031 ft | 173 kts | 43° |
| 2026-05-08 00:03 | 43.57814 | -79.74355 | 3026 ft | 171 kts | 44° |
| 2026-05-08 00:03 | 43.58635 | -79.73169 | 3024 ft | 171 kts | 44° |
| 2026-05-08 00:03 | 43.59446 | -79.71995 | 2846 ft | 168 kts | 44° |
| 2026-05-08 00:03 | 43.60259 | -79.70820 | 2410 ft | 169 kts | 44° |
| 2026-05-08 00:04 | 43.61063 | -79.69654 | 2092 ft | 164 kts | 44° |
| 2026-05-08 00:04 | 43.61843 | -79.68525 | 1846 ft | 162 kts | 44° |
| 2026-05-08 00:04 | 43.62616 | -79.67405 | 1612 ft | 161 kts | 44° |
| 2026-05-08 00:04 | 43.63386 | -79.66289 | 1384 ft | 159 kts | 44° |
| 2026-05-08 00:05 | 43.63887 | -79.65556 | 1234 ft | 157 kts | 45° |
| 2026-05-08 00:05 | 43.64627 | -79.64473 | 1035 ft | 153 kts | 46° |
| 2026-05-08 00:05 | 43.65359 | -79.63408 | 823 ft | 152 kts | 45° |
| 2026-05-08 00:05 | 43.66099 | -79.62358 | 637 ft | 152 kts | 45° |
| 2026-05-08 00:06 | 43.66989 | -79.61059 | 571 ft | 106 kts | 47° |
| 2026-05-08 00:06 | 43.67233 | -79.60698 | 564 ft | 47 kts | 47° |
| 2026-05-08 00:06 | 43.67355 | -79.60527 | 567 ft | 22 kts | 42° |
| 2026-05-08 00:06 | 43.67476 | -79.60439 | 565 ft | 18 kts | 19° |
| 2026-05-08 00:07 | 43.67566 | -79.60405 | 569 ft | 8 kts | 11° |
| 2026-05-08 00:07 | 43.67609 | -79.60444 | 563 ft | 9 kts | 294° |
| 2026-05-08 00:07 | 43.67589 | -79.60514 | 563 ft | 8 kts | 231° |
| 2026-05-08 00:07 | 43.67550 | -79.60572 | 565 ft | 8 kts | 226° |
| 2026-05-08 00:08 | 43.67512 | -79.60627 | 561 ft | 8 kts | 226° |
| 2026-05-08 00:08 | 43.67474 | -79.60681 | 564 ft | 10 kts | 226° |
| 2026-05-08 00:08 | 43.67392 | -79.60800 | 566 ft | 21 kts | 226° |
| 2026-05-08 00:08 | 43.67295 | -79.60941 | 564 ft | 19 kts | 226° |
| 2026-05-08 00:09 | 43.67207 | -79.61067 | 562 ft | 14 kts | 226° |
| 2026-05-08 00:09 | 43.67200 | -79.61161 | 568 ft | 9 kts | 311° |
| 2026-05-08 00:09 | 43.67257 | -79.61236 | 564 ft | 16 kts | 316° |
| 2026-05-08 00:09 | 43.67339 | -79.61342 | 564 ft | 15 kts | 317° |
| 2026-05-08 00:10 | 43.67414 | -79.61439 | 567 ft | 14 kts | 316° |
| 2026-05-08 00:10 | 43.67480 | -79.61527 | 565 ft | 13 kts | 316° |
| 2026-05-08 00:10 | 43.67541 | -79.61606 | 570 ft | 12 kts | 317° |
| 2026-05-08 00:10 | 43.67597 | -79.61677 | 573 ft | 10 kts | 316° |
| 2026-05-08 00:11 | 43.67648 | -79.61745 | 563 ft | 12 kts | 316° |
| 2026-05-08 00:11 | 43.67706 | -79.61820 | 568 ft | 11 kts | 316° |
| 2026-05-08 00:11 | 43.67760 | -79.61890 | 569 ft | 10 kts | 316° |
| 2026-05-08 00:11 | 43.67813 | -79.61960 | 565 ft | 14 kts | 316° |
| 2026-05-08 00:12 | 43.67880 | -79.62045 | 569 ft | 11 kts | 320° |
| 2026-05-08 00:12 | 43.67948 | -79.62051 | 563 ft | 10 kts | 30° |
| 2026-05-08 00:12 | 43.67987 | -79.61977 | 568 ft | 9 kts | 69° |
| 2026-05-08 00:12 | 43.68009 | -79.61902 | 567 ft | 9 kts | 47° |
| 2026-05-08 00:13 | 43.68052 | -79.61837 | 569 ft | 9 kts | 47° |
| 2026-05-08 00:13 | 43.68073 | -79.61779 | 566 ft | 6 kts | 103° |
| 2026-05-08 00:13 | 43.68050 | -79.61743 | 566 ft | 4 kts | 137° |
| 2026-05-08 00:13 | 43.68033 | -79.61720 | 570 ft | 3 kts | 137° |
| 2026-05-08 00:14 | 43.68032 | -79.61720 | 570 ft | 0 kts | 137° |
| 2026-05-08 00:26 | 43.68035 | -79.61723 | 570 ft | 3 kts | 137° |
| 2026-05-08 00:26 | 43.68048 | -79.61740 | 566 ft | 3 kts | 137° |
| 2026-05-08 00:26 | 43.68062 | -79.61758 | 570 ft | 3 kts | 141° |
| 2026-05-08 00:27 | 43.68079 | -79.61769 | 570 ft | 2 kts | 165° |
| 2026-05-08 00:27 | 43.68097 | -79.61769 | 567 ft | 3 kts | 206° |
| 2026-05-08 00:27 | 43.68111 | -79.61753 | 570 ft | 3 kts | 224° |
| 2026-05-08 00:27 | 43.68117 | -79.61746 | 563 ft | 0 kts | 224° |
| 2026-05-08 00:29 | 43.68116 | -79.61747 | 569 ft | 2 kts | 224° |
| 2026-05-08 00:29 | 43.68089 | -79.61784 | 569 ft | 7 kts | 225° |
| 2026-05-08 00:29 | 43.68061 | -79.61823 | 565 ft | 4 kts | 226° |
| 2026-05-08 00:29 | 43.68034 | -79.61863 | 564 ft | 10 kts | 227° |
| 2026-05-08 00:30 | 43.67996 | -79.61934 | 567 ft | 8 kts | 248° |
| 2026-05-08 00:30 | 43.67983 | -79.61992 | 564 ft | 5 kts | 250° |
| 2026-05-08 00:30 | 43.67958 | -79.62048 | 570 ft | 9 kts | 247° |
| 2026-05-08 00:30 | 43.67981 | -79.62113 | 566 ft | 10 kts | 315° |
| 2026-05-08 00:31 | 43.68039 | -79.62187 | 566 ft | 12 kts | 317° |
| 2026-05-08 00:31 | 43.68105 | -79.62275 | 562 ft | 12 kts | 316° |
| 2026-05-08 00:31 | 43.68158 | -79.62343 | 562 ft | 9 kts | 317° |
| 2026-05-08 00:31 | 43.68207 | -79.62406 | 562 ft | 13 kts | 316° |
| 2026-05-08 00:32 | 43.68273 | -79.62484 | 565 ft | 11 kts | 320° |
| 2026-05-08 00:32 | 43.68329 | -79.62554 | 567 ft | 13 kts | 316° |
| 2026-05-08 00:32 | 43.68391 | -79.62635 | 563 ft | 11 kts | 316° |
| 2026-05-08 00:32 | 43.68444 | -79.62704 | 562 ft | 12 kts | 316° |
| 2026-05-08 00:33 | 43.68510 | -79.62790 | 562 ft | 13 kts | 317° |
| 2026-05-08 00:33 | 43.68567 | -79.62864 | 568 ft | 10 kts | 317° |
| 2026-05-08 00:33 | 43.68621 | -79.62932 | 569 ft | 14 kts | 318° |
| 2026-05-08 00:33 | 43.68697 | -79.62996 | 564 ft | 10 kts | 359° |
| 2026-05-08 00:34 | 43.68749 | -79.62979 | 565 ft | 6 kts | 23° |
| 2026-05-08 00:34 | 43.68789 | -79.62932 | 565 ft | 9 kts | 47° |
| 2026-05-08 00:34 | 43.68821 | -79.62882 | 560 ft | 5 kts | 58° |
| 2026-05-08 00:34 | 43.68818 | -79.62855 | 563 ft | 1 kts | 115° |
| 2026-05-08 00:35 | 43.68800 | -79.62828 | 568 ft | 6 kts | 134° |
| 2026-05-08 00:35 | 43.68780 | -79.62802 | 567 ft | 2 kts | 137° |
| 2026-05-08 00:35 | 43.68778 | -79.62800 | 566 ft | 0 kts | 137° |